Terminal Aerodrome Forecast
Issued by NWS

Home | Current Version | Previous Version | Text Only | Print | Product List | Glossary On
Versions: 1 2 3 4 5 6 7 8 9 10 11 12 13 14 15 16 17
000
FTUS46 KSGX 021121
TAFSNA
TAF
KSNA 021121Z 0212/0312 VRB04KT P6SM OVC015
     FM021700 22009KT P6SM SKC
     FM030300 VRB04KT P6SM SCT018
     FM030500 VRB04KT P6SM OVC018
     FM030900 VRB03KT P6SM OVC022=

USA.gov is the U.S. government's official web portal to all federal, state and local government web resources and services.